Hopeville, Connecticut
Current Conditions -  °F | °C
As of 5:52 AM on Friday 28 Nov 2014 (Local Time) from KIJD Reporting Station
Broken Clouds Broken Clouds  
Wind Chill: 23°   Ceiling: 7000
Heat Index: 30°   Visibility: 10mi
Dew Point: 24°   Wind: 7mph
Humidity: 79%   Direction: 330°NNW
Pressure: 30.04"   Gusts: NA
Location:  41.6042°N, 71.9701°W
Report Text: KIJD 281052Z AUTO 33006KT 10SM FEW060 BKN070 M01/M04 A3004 RMK AO2 SLP174 T10111044
Loading
Personal Weather Stations






























Interactive Weather Map New forecast layout! Learn more

10-Day Weather Forecast

Advertisements
Track Severe Weather on mobile